Time;durP1;ratioP1;P1;durP2;ratioP2;P2;SDS_P1;SDS_P2;PMS_P1;PMS_P2;Temp;Humidity;BMP_temperature;BMP_pressure;BME280_temperature;BME280_humidity;BME280_pressure;Samples;Min_cycle;Max_cycle;Signal;HPM_P1;HPM_P2
2023/09/17 00:01:19;;;;;;;21.75;10.75;;;;;;;-141.50;100.00;63355.56;5029719;28;20045;-80
2023/09/17 00:03:46;;;;;;;18.02;10.02;;;;;;;-141.50;100.00;63355.56;5033941;28;20106;-79
2023/09/17 00:06:14;;;;;;;17.90;9.95;;;;;;;-141.50;100.00;63355.56;5031993;28;20049;-80
2023/09/17 00:08:41;;;;;;;18.05;10.77;;;;;;;-141.50;100.00;63355.56;5037156;28;20052;-79
2023/09/17 00:11:08;;;;;;;20.80;11.52;;;;;;;-141.50;100.00;63355.56;5032445;28;20069;-79
2023/09/17 00:13:37;;;;;;;15.73;9.90;;;;;;;-141.50;100.00;63355.56;5034299;28;20060;-79
2023/09/17 00:16:04;;;;;;;16.38;10.50;;;;;;;-141.50;100.00;63355.56;5032252;28;20290;-80
2023/09/17 00:18:31;;;;;;;15.77;10.55;;;;;;;-141.50;100.00;63355.56;5031892;28;20659;-80
2023/09/17 00:20:58;;;;;;;15.85;9.80;;;;;;;-141.50;100.00;63355.56;5029498;28;20049;-79
2023/09/17 00:23:25;;;;;;;19.75;10.75;;;;;;;-141.50;100.00;63355.56;5034004;28;20049;-79
2023/09/17 00:25:52;;;;;;;19.45;11.02;;;;;;;-141.50;100.00;63355.56;5033112;28;20053;-79
2023/09/17 00:28:19;;;;;;;19.65;9.77;;;;;;;-141.50;100.00;63355.56;5033763;28;20443;-80
2023/09/17 00:30:45;;;;;;;17.23;9.88;;;;;;;-141.50;100.00;63355.56;5031128;28;20049;-80
2023/09/17 00:33:12;;;;;;;17.05;9.65;;;;;;;-141.50;100.00;63355.56;5030911;28;20045;-81
2023/09/17 00:35:39;;;;;;;17.58;10.32;;;;;;;-141.50;100.00;63355.56;5014771;28;20507;-79
2023/09/17 00:38:06;;;;;;;17.83;9.85;;;;;;;-141.50;100.00;63355.56;5032910;28;20159;-79
2023/09/17 00:40:37;;;;;;;15.93;9.23;;;;;;;-141.50;100.00;63355.56;5032006;28;20091;-80
2023/09/17 00:43:03;;;;;;;17.08;9.75;;;;;;;-141.50;100.00;63355.56;5032033;28;20052;-80
2023/09/17 00:45:31;;;;;;;16.65;9.25;;;;;;;-141.50;100.00;63355.56;5031795;28;20047;-80
2023/09/17 00:48:00;;;;;;;18.67;9.77;;;;;;;-141.50;100.00;63355.56;5036575;28;20037;-80
2023/09/17 00:50:28;;;;;;;15.77;9.13;;;;;;;-141.50;100.00;63355.56;5030119;28;20053;-80
2023/09/17 00:52:54;;;;;;;17.45;8.48;;;;;;;-141.50;100.00;63355.56;5031544;28;20111;-80
2023/09/17 00:55:21;;;;;;;18.67;10.10;;;;;;;-141.50;100.00;63355.56;5031989;28;20101;-81
2023/09/17 00:57:49;;;;;;;18.67;9.52;;;;;;;-141.50;100.00;63355.56;5037716;28;20049;-79
2023/09/17 01:00:20;;;;;;;15.27;8.68;;;;;;;-141.50;100.00;63355.56;5034008;28;20041;-79
2023/09/17 01:02:48;;;;;;;15.02;9.25;;;;;;;-141.50;100.00;63355.56;5032895;28;20045;-80
2023/09/17 01:05:15;;;;;;;16.13;8.57;;;;;;;-141.50;100.00;63355.56;5033559;28;20058;-79
2023/09/17 01:07:43;;;;;;;14.80;9.18;;;;;;;-141.50;100.00;63355.56;5032926;28;20045;-79
2023/09/17 01:10:11;;;;;;;16.27;9.00;;;;;;;-141.50;100.00;63355.56;5031712;28;20050;-79
2023/09/17 01:12:38;;;;;;;17.15;8.75;;;;;;;-141.50;100.00;63355.56;5046796;28;20037;-79
2023/09/17 01:15:09;;;;;;;15.30;8.63;;;;;;;-141.50;100.00;63355.56;5030743;28;20049;-79
2023/09/17 01:17:37;;;;;;;17.40;9.15;;;;;;;-141.50;100.00;63355.56;5030671;28;20060;-78
2023/09/17 01:20:29;;;;;;;13.20;7.72;;;;;;;-141.50;100.00;63355.56;5021854;28;20048;-80
2023/09/17 01:23:03;;;;;;;16.83;8.00;;;;;;;-141.50;100.00;63355.56;5029615;28;21743;-79
2023/09/17 01:25:35;;;;;;;13.38;8.43;;;;;;;-141.50;100.00;63355.56;5029568;28;20091;-78
2023/09/17 01:28:03;;;;;;;13.88;7.68;;;;;;;-141.50;100.00;63355.56;5033038;28;20052;-80
2023/09/17 01:30:30;;;;;;;15.95;8.32;;;;;;;-141.50;100.00;63355.56;5029974;28;20065;-80
2023/09/17 01:32:56;;;;;;;14.20;8.25;;;;;;;-141.50;100.00;63355.56;5031305;28;20049;-79
2023/09/17 01:35:24;;;;;;;12.18;7.25;;;;;;;-141.50;100.00;63355.56;5030866;28;20072;-80
2023/09/17 01:38:00;;;;;;;13.13;7.95;;;;;;;-141.50;100.00;63355.56;5045365;28;20128;-79
2023/09/17 01:40:28;;;;;;;13.75;8.20;;;;;;;-141.50;100.00;63355.56;5030889;28;20191;-79
2023/09/17 01:42:56;;;;;;;14.52;7.95;;;;;;;-141.50;100.00;63355.56;5031121;28;20045;-79
2023/09/17 01:45:26;;;;;;;14.82;8.18;;;;;;;-141.50;100.00;63355.56;5029773;28;20053;-79
2023/09/17 01:47:55;;;;;;;14.20;7.63;;;;;;;-141.50;100.00;63355.56;5037008;28;20124;-79
2023/09/17 01:50:24;;;;;;;15.55;7.43;;;;;;;-141.50;100.00;63355.56;5030454;28;20538;-79
2023/09/17 01:52:52;;;;;;;14.70;7.45;;;;;;;-141.50;100.00;63355.56;5027682;28;20037;-79
2023/09/17 01:55:21;;;;;;;13.52;7.40;;;;;;;-141.50;100.00;63355.56;5032978;28;20125;-79
2023/09/17 01:57:48;;;;;;;13.40;7.32;;;;;;;-141.50;100.00;63355.56;5031334;28;20052;-79
2023/09/17 02:00:16;;;;;;;16.92;7.85;;;;;;;-141.50;100.00;63355.56;5026697;28;20049;-79
2023/09/17 02:02:50;;;;;;;14.20;7.25;;;;;;;-141.50;100.00;63355.56;5031752;28;20135;-79
2023/09/17 02:05:20;;;;;;;12.50;7.43;;;;;;;-141.50;100.00;63355.56;5029741;28;20475;-79
2023/09/17 02:07:48;;;;;;;14.85;7.15;;;;;;;-141.50;100.00;63355.56;5030974;28;20652;-79
2023/09/17 02:10:15;;;;;;;11.93;7.45;;;;;;;-141.50;100.00;63355.56;5031706;28;21316;-79
2023/09/17 02:12:41;;;;;;;11.50;7.28;;;;;;;-141.50;100.00;63355.56;5029907;28;20044;-79
2023/09/17 02:15:10;;;;;;;14.25;7.60;;;;;;;-141.50;100.00;63355.56;5029870;28;20052;-80
2023/09/17 02:17:38;;;;;;;11.77;7.28;;;;;;;-141.50;100.00;63355.56;5046966;28;20084;-79
2023/09/17 02:20:11;;;;;;;13.07;7.63;;;;;;;-141.50;100.00;63355.56;5031036;28;20048;-78
2023/09/17 02:22:38;;;;;;;11.82;7.25;;;;;;;-141.50;100.00;63355.56;5025619;28;20112;-79
2023/09/17 02:25:06;;;;;;;12.75;6.93;;;;;;;-141.50;100.00;63355.56;5031707;28;20053;-79
2023/09/17 02:27:34;;;;;;;11.13;6.75;;;;;;;-141.50;100.00;63355.56;5031433;28;20068;-80
2023/09/17 02:30:01;;;;;;;12.90;7.60;;;;;;;-141.50;100.00;63355.56;5046521;28;20065;-80
2023/09/17 02:32:28;;;;;;;11.95;6.88;;;;;;;-141.50;100.00;63355.56;5030928;28;20439;-77
2023/09/17 02:34:54;;;;;;;11.23;7.13;;;;;;;-141.50;100.00;63355.56;5028382;28;20508;-78
2023/09/17 02:37:21;;;;;;;13.05;7.22;;;;;;;-141.50;100.00;63355.56;5011243;28;20042;-80
2023/09/17 02:39:48;;;;;;;11.30;6.75;;;;;;;-141.50;100.00;63355.56;5027884;28;20049;-80
2023/09/17 02:42:16;;;;;;;11.02;7.03;;;;;;;-141.50;100.00;63355.56;5029736;28;20053;-79
2023/09/17 02:44:43;;;;;;;12.20;6.75;;;;;;;-141.50;100.00;63355.56;5028921;28;20044;-80
2023/09/17 02:47:10;;;;;;;11.15;6.72;;;;;;;-141.50;100.00;63355.56;5025725;28;20045;-80
2023/09/17 02:49:37;;;;;;;13.50;7.18;;;;;;;-141.50;100.00;63355.56;5028497;28;20045;-80
2023/09/17 02:52:06;;;;;;;10.20;6.68;;;;;;;-141.50;100.00;63355.56;5029588;28;20043;-79
2023/09/17 02:54:34;;;;;;;12.75;6.88;;;;;;;-141.50;100.00;63355.56;5033155;28;20460;-79
2023/09/17 02:57:01;;;;;;;11.82;6.72;;;;;;;-141.50;100.00;63355.56;5035201;28;20046;-79
2023/09/17 02:59:28;;;;;;;10.48;6.65;;;;;;;-141.50;100.00;63355.56;5050545;28;20132;-80
2023/09/17 03:01:55;;;;;;;13.00;6.95;;;;;;;-141.50;100.00;63355.56;5017528;28;20053;-80
2023/09/17 03:04:26;;;;;;;11.35;6.45;;;;;;;-141.50;100.00;63355.56;5035759;28;20046;-79
2023/09/17 03:06:53;;;;;;;9.73;6.47;;;;;;;-141.50;100.00;63355.56;5051468;28;20380;-80
2023/09/17 03:09:20;;;;;;;11.85;6.82;;;;;;;-141.50;100.00;63355.56;5050464;28;20060;-80
2023/09/17 03:11:49;;;;;;;11.35;6.47;;;;;;;-141.50;100.00;63355.56;5049179;28;20045;-79
2023/09/17 03:14:16;;;;;;;11.20;6.22;;;;;;;-141.50;100.00;63355.56;5049236;28;20057;-80
2023/09/17 03:16:44;;;;;;;11.80;6.53;;;;;;;-141.50;100.00;63355.56;5046858;28;20056;-80
2023/09/17 03:19:12;;;;;;;11.45;6.20;;;;;;;-141.50;100.00;63355.56;5040372;28;20065;-78
2023/09/17 03:21:40;;;;;;;10.60;6.53;;;;;;;-141.50;100.00;63355.56;5048033;28;20460;-80
2023/09/17 03:24:08;;;;;;;14.70;6.53;;;;;;;-141.50;100.00;63355.56;5016656;28;20188;-79
2023/09/17 03:26:38;;;;;;;11.35;6.45;;;;;;;-141.50;100.00;63355.56;5035233;28;20049;-78
2023/09/17 03:29:07;;;;;;;12.23;6.85;;;;;;;-141.50;100.00;63355.56;5046595;28;20052;-79
2023/09/17 03:31:34;;;;;;;12.73;6.15;;;;;;;-141.50;100.00;63355.56;5031333;28;20049;-79
2023/09/17 03:34:03;;;;;;;11.23;6.28;;;;;;;-141.50;100.00;63355.56;5029597;28;20055;-79
2023/09/17 03:36:30;;;;;;;10.70;6.38;;;;;;;-141.50;100.00;63355.56;5034985;28;20125;-79
2023/09/17 03:38:59;;;;;;;13.80;6.78;;;;;;;-141.50;100.00;63355.56;5029915;28;20071;-79
2023/09/17 03:41:27;;;;;;;14.55;6.93;;;;;;;-141.50;100.00;63355.56;5049871;28;20148;-79
2023/09/17 03:43:55;;;;;;;11.50;6.65;;;;;;;-141.50;100.00;63355.56;5034439;28;21521;-79
2023/09/17 03:46:22;;;;;;;10.75;6.38;;;;;;;-141.50;100.00;63355.56;5031898;28;20053;-79
2023/09/17 03:48:49;;;;;;;11.77;6.88;;;;;;;-141.50;100.00;63355.56;5000272;28;20076;-79
2023/09/17 03:51:16;;;;;;;10.90;6.75;;;;;;;-141.50;100.00;63355.56;5015441;28;20049;-80
2023/09/17 03:53:43;;;;;;;10.70;6.18;;;;;;;-141.50;100.00;63355.56;5033996;28;20049;-79
2023/09/17 03:56:12;;;;;;;10.05;5.95;;;;;;;-141.50;100.00;63355.56;5016868;28;20072;-79
2023/09/17 03:58:38;;;;;;;10.70;6.05;;;;;;;-141.50;100.00;63355.56;5034777;28;20041;-79
2023/09/17 04:01:06;;;;;;;10.60;6.47;;;;;;;-141.50;100.00;63355.56;5048281;28;20053;-80
2023/09/17 04:03:34;;;;;;;11.63;6.50;;;;;;;-141.50;100.00;63355.56;5032100;28;20068;-79
2023/09/17 04:06:00;;;;;;;9.98;6.65;;;;;;;-141.50;100.00;63355.56;5032087;28;20125;-78
2023/09/17 04:08:27;;;;;;;11.73;5.93;;;;;;;-141.50;100.00;63355.56;5032977;28;20050;-79
2023/09/17 04:10:54;;;;;;;12.65;6.00;;;;;;;-141.50;100.00;63355.56;5033628;28;20069;-79
2023/09/17 04:13:21;;;;;;;7.78;5.10;;;;;;;-141.50;100.00;63355.56;5032410;28;20076;-79
2023/09/17 04:15:49;;;;;;;12.85;6.13;;;;;;;-141.50;100.00;63355.56;5033937;28;20045;-79
2023/09/17 04:18:16;;;;;;;11.18;5.97;;;;;;;-141.50;100.00;63355.56;5023410;28;20080;-79
2023/09/17 04:20:42;;;;;;;12.68;5.53;;;;;;;-141.50;100.00;63355.56;5032374;28;20041;-79
2023/09/17 04:23:09;;;;;;;10.45;5.78;;;;;;;-141.50;100.00;63355.56;5033013;28;20507;-79
2023/09/17 04:25:36;;;;;;;11.30;6.35;;;;;;;-141.50;100.00;63355.56;5032730;28;20042;-79
2023/09/17 04:28:05;;;;;;;8.73;5.28;;;;;;;-141.50;100.00;63355.56;5026997;28;20053;-79
2023/09/17 04:30:33;;;;;;;11.27;5.95;;;;;;;-141.50;100.00;63355.56;5031335;28;20132;-79
2023/09/17 04:33:01;;;;;;;11.15;6.10;;;;;;;-141.50;100.00;63355.56;5033418;28;20128;-79
2023/09/17 04:35:28;;;;;;;10.18;5.93;;;;;;;-141.50;100.00;63355.56;5014491;28;20045;-79
2023/09/17 04:37:55;;;;;;;11.40;5.80;;;;;;;-141.50;100.00;63355.56;5032217;28;20431;-79
2023/09/17 04:40:28;;;;;;;10.15;5.63;;;;;;;-141.50;100.00;63355.56;5015169;28;20079;-79
2023/09/17 04:42:57;;;;;;;8.90;5.50;;;;;;;-141.50;100.00;63355.56;5031470;28;20133;-80
2023/09/17 04:45:39;;;;;;;11.02;5.85;;;;;;;-141.50;100.00;63355.56;5031303;28;20053;-79
2023/09/17 04:48:11;;;;;;;14.68;6.65;;;;;;;-141.50;100.00;63355.56;5043748;28;20397;-79
2023/09/17 04:50:42;;;;;;;12.52;7.45;;;;;;;-141.50;100.00;63355.56;5029760;28;20107;-79
2023/09/17 04:53:14;;;;;;;13.63;6.63;;;;;;;-141.50;100.00;63355.56;5028783;28;20046;-79
2023/09/17 04:55:44;;;;;;;14.05;7.47;;;;;;;-141.50;100.00;63355.56;5034797;28;20069;-78
2023/09/17 04:58:13;;;;;;;13.43;6.85;;;;;;;-141.50;100.00;63355.56;5031866;28;20053;-79
2023/09/17 05:00:40;;;;;;;16.83;7.55;;;;;;;-141.50;100.00;63355.56;5036426;28;20049;-79
2023/09/17 05:03:07;;;;;;;17.05;8.57;;;;;;;-141.50;100.00;63355.56;5027698;28;20455;-79
2023/09/17 05:05:34;;;;;;;19.83;8.73;;;;;;;-141.50;100.00;63355.56;5031131;28;20045;-79
2023/09/17 05:08:01;;;;;;;16.52;7.82;;;;;;;-141.50;100.00;63355.56;5031073;28;20065;-79
2023/09/17 05:10:28;;;;;;;14.90;7.68;;;;;;;-141.50;100.00;63355.56;5031952;28;20067;-79
2023/09/17 05:12:56;;;;;;;13.65;7.63;;;;;;;-141.50;100.00;63355.56;5014545;28;20091;-79
2023/09/17 05:15:24;;;;;;;15.68;7.15;;;;;;;-141.50;100.00;63355.56;5034135;28;20110;-79
2023/09/17 05:17:53;;;;;;;16.60;7.60;;;;;;;-141.50;100.00;63355.56;5030764;28;20048;-78
2023/09/17 05:20:21;;;;;;;15.73;7.45;;;;;;;-141.50;100.00;63355.56;5022058;28;20057;-78
2023/09/17 05:22:48;;;;;;;12.55;6.18;;;;;;;-141.50;100.00;63355.56;5022877;28;20049;-78
2023/09/17 05:25:15;;;;;;;12.73;6.90;;;;;;;-141.50;100.00;63355.56;5029297;28;20387;-78
2023/09/17 05:27:43;;;;;;;11.95;6.22;;;;;;;-141.50;100.00;63355.56;5045619;28;20049;-79
2023/09/17 05:30:12;;;;;;;12.30;6.63;;;;;;;-141.50;100.00;63355.56;5030836;28;20045;-78
2023/09/17 05:32:39;;;;;;;12.18;6.75;;;;;;;-141.50;100.00;63355.56;5030473;28;20124;-79
2023/09/17 05:35:07;;;;;;;17.20;6.95;;;;;;;-141.50;100.00;63355.56;5032261;28;20155;-80
2023/09/17 05:37:35;;;;;;;12.32;6.65;;;;;;;-141.50;100.00;63355.56;5030055;28;20041;-78
2023/09/17 05:40:05;;;;;;;13.05;7.00;;;;;;;-141.50;100.00;63355.56;5031325;28;20080;-79
2023/09/17 05:42:33;;;;;;;12.88;7.57;;;;;;;-141.50;100.00;63355.56;5030335;28;20053;-79
2023/09/17 05:45:00;;;;;;;13.23;7.60;;;;;;;-141.50;100.00;63355.56;5023546;28;20101;-79
2023/09/17 05:47:28;;;;;;;13.27;7.78;;;;;;;-141.50;100.00;63355.56;5021731;28;20817;-79
2023/09/17 05:49:57;;;;;;;11.20;7.32;;;;;;;-141.50;100.00;63355.56;5023360;28;20131;-79
2023/09/17 05:52:28;;;;;;;13.40;8.32;;;;;;;-141.50;100.00;63355.56;5002033;28;20707;-80
2023/09/17 05:54:55;;;;;;;15.82;8.40;;;;;;;-141.50;100.00;63355.56;5024910;28;20077;-79
2023/09/17 05:57:22;;;;;;;14.57;8.40;;;;;;;-141.50;100.00;63355.56;5024282;28;20224;-79
2023/09/17 05:59:49;;;;;;;14.27;8.38;;;;;;;-141.50;100.00;63355.56;5023655;28;20049;-80
2023/09/17 06:02:16;;;;;;;13.25;8.10;;;;;;;-141.50;100.00;63355.56;5024949;28;20049;-80
2023/09/17 06:04:43;;;;;;;13.65;8.18;;;;;;;-141.50;100.00;63355.56;5023872;28;20372;-78
2023/09/17 06:07:10;;;;;;;13.07;7.43;;;;;;;-141.50;100.00;63355.56;5021240;28;20057;-78
2023/09/17 06:09:37;;;;;;;14.20;7.03;;;;;;;-141.50;100.00;63355.56;5019019;28;20201;-79
2023/09/17 06:12:04;;;;;;;12.57;7.60;;;;;;;-141.50;100.00;63355.56;5023446;28;20506;-79
2023/09/17 06:14:31;;;;;;;15.05;8.18;;;;;;;-141.50;100.00;63355.56;5022906;28;20057;-79
2023/09/17 06:16:58;;;;;;;13.60;8.18;;;;;;;-141.50;100.00;63355.56;5039826;28;20053;-79
2023/09/17 06:19:29;;;;;;;11.88;7.03;;;;;;;-141.50;100.00;63355.56;5023028;28;20041;-78
2023/09/17 06:21:56;;;;;;;11.40;7.30;;;;;;;-141.50;100.00;63355.56;5021375;28;20115;-79
2023/09/17 06:24:23;;;;;;;11.45;6.95;;;;;;;-141.50;100.00;63355.56;5019941;28;20058;-78
2023/09/17 06:26:50;;;;;;;10.18;6.90;;;;;;;-141.50;100.00;63355.56;5019165;28;20052;-79
2023/09/17 06:29:17;;;;;;;10.73;6.65;;;;;;;-141.50;100.00;63355.56;5024582;28;20571;-78
2023/09/17 06:31:44;;;;;;;10.52;6.82;;;;;;;-141.50;100.00;63355.56;5023713;28;20052;-79
2023/09/17 06:34:14;;;;;;;9.60;6.68;;;;;;;-141.50;100.00;63355.56;5024696;28;20264;-79
2023/09/17 06:36:41;;;;;;;9.55;6.35;;;;;;;-141.50;100.00;63355.56;5018220;28;20070;-78
2023/09/17 06:39:09;;;;;;;11.38;6.82;;;;;;;-141.50;100.00;63355.56;5023236;28;20478;-78
2023/09/17 06:41:37;;;;;;;7.53;5.38;;;;;;;-141.50;100.00;63355.56;5019342;28;20041;-77
2023/09/17 06:44:08;;;;;;;9.10;5.85;;;;;;;-141.50;100.00;63355.56;5021799;28;20107;-79
2023/09/17 06:46:36;;;;;;;7.65;5.18;;;;;;;-141.50;100.00;63355.56;5021532;28;20139;-76
2023/09/17 06:49:03;;;;;;;8.27;5.13;;;;;;;-141.50;100.00;63355.56;5015431;28;20041;-77
2023/09/17 06:51:30;;;;;;;8.50;5.07;;;;;;;-141.50;100.00;63355.56;5018589;28;20050;-76
2023/09/17 06:53:57;;;;;;;7.82;5.25;;;;;;;-141.50;100.00;63355.56;5020452;28;20677;-76
2023/09/17 06:56:24;;;;;;;8.07;4.32;;;;;;;-141.50;100.00;63355.56;5021719;28;20057;-78
2023/09/17 06:58:51;;;;;;;7.50;4.68;;;;;;;-141.50;100.00;63355.56;5024447;28;20451;-78
2023/09/17 07:01:18;;;;;;;7.10;4.82;;;;;;;-141.50;100.00;63355.56;5023794;28;20049;-79
2023/09/17 07:03:45;;;;;;;7.28;4.75;;;;;;;-141.50;100.00;63355.56;5049400;28;20689;-79
2023/09/17 07:06:13;;;;;;;6.32;4.28;;;;;;;-141.50;100.00;63355.56;5032818;28;20081;-78
2023/09/17 07:08:39;;;;;;;5.95;3.92;;;;;;;-141.50;100.00;63355.56;5036105;28;20119;-78
2023/09/17 07:11:06;;;;;;;7.28;4.25;;;;;;;-141.50;100.00;63355.56;5030203;28;20399;-78
2023/09/17 07:13:33;;;;;;;5.05;3.53;;;;;;;-141.50;100.00;63355.56;5039008;28;20037;-77
2023/09/17 07:16:00;;;;;;;7.75;4.05;;;;;;;-141.50;100.00;63355.56;5026111;28;20045;-78
2023/09/17 07:18:30;;;;;;;7.22;3.38;;;;;;;-141.50;100.00;63355.56;5021131;28;20050;-78
2023/09/17 07:20:57;;;;;;;5.90;3.83;;;;;;;-141.50;100.00;63355.56;5036217;28;20056;-78
2023/09/17 07:23:24;;;;;;;5.88;3.65;;;;;;;-141.50;100.00;63355.56;5021550;28;20072;-77
2023/09/17 07:25:51;;;;;;;5.32;3.42;;;;;;;-141.50;100.00;63355.56;5003777;28;20045;-78
2023/09/17 07:28:19;;;;;;;5.82;3.50;;;;;;;-141.50;100.00;63355.56;5021300;28;20815;-78
2023/09/17 07:30:45;;;;;;;5.05;3.33;;;;;;;-141.50;100.00;63355.56;5021145;28;20053;-78
2023/09/17 07:33:15;;;;;;;8.95;3.65;;;;;;;-141.50;100.00;63355.56;5022523;28;20045;-78
2023/09/17 07:35:42;;;;;;;6.13;3.70;;;;;;;-141.50;100.00;63355.56;5020043;28;21114;-78
2023/09/17 07:38:09;;;;;;;4.63;3.03;;;;;;;-141.50;100.00;63355.56;5019615;28;20054;-78
2023/09/17 07:40:35;;;;;;;3.75;2.85;;;;;;;-141.50;100.00;63355.56;5024075;28;20042;-77
2023/09/17 07:43:04;;;;;;;4.80;3.08;;;;;;;-141.50;100.00;63355.56;5026597;28;20536;-78
2023/09/17 07:45:33;;;;;;;5.20;3.00;;;;;;;-141.50;100.00;63355.56;5031626;28;20053;-78
2023/09/17 07:48:03;;;;;;;4.50;3.00;;;;;;;-141.50;100.00;63355.56;5027278;28;20045;-78
2023/09/17 07:50:30;;;;;;;5.60;3.15;;;;;;;-141.50;100.00;63355.56;5023953;28;20470;-78
2023/09/17 07:52:57;;;;;;;4.22;2.88;;;;;;;-141.50;100.00;63355.56;5021593;28;20053;-78
2023/09/17 07:55:24;;;;;;;4.95;2.97;;;;;;;-141.50;100.00;63355.56;5029557;28;20123;-77
2023/09/17 07:57:51;;;;;;;3.67;2.75;;;;;;;-141.50;100.00;63355.56;5037515;28;20052;-79
2023/09/17 08:00:18;;;;;;;4.75;2.90;;;;;;;-141.50;100.00;63355.56;5030445;28;20107;-77
2023/09/17 08:02:45;;;;;;;3.38;2.47;;;;;;;-141.50;100.00;63355.56;5028005;28;20049;-78
2023/09/17 08:05:13;;;;;;;4.22;2.85;;;;;;;-141.50;100.00;63355.56;5029034;28;20592;-78
2023/09/17 08:07:40;;;;;;;3.95;2.60;;;;;;;-141.50;100.00;63355.56;5026893;28;20128;-78
2023/09/17 08:10:08;;;;;;;5.43;2.58;;;;;;;-141.50;100.00;63355.56;5027684;28;20049;-78
2023/09/17 08:12:35;;;;;;;3.78;2.53;;;;;;;-141.50;100.00;63355.56;5027470;28;20050;-78
2023/09/17 08:15:03;;;;;;;3.53;2.30;;;;;;;-141.50;100.00;63355.56;5014458;28;20041;-78
2023/09/17 08:17:29;;;;;;;2.72;2.17;;;;;;;-141.50;100.00;63355.56;5024220;28;20049;-79
2023/09/17 08:19:58;;;;;;;3.13;2.30;;;;;;;-141.50;100.00;63355.56;5043205;28;20053;-78
2023/09/17 08:22:27;;;;;;;4.32;2.47;;;;;;;-141.50;100.00;63355.56;5024785;28;20473;-78
2023/09/17 08:24:54;;;;;;;3.05;2.20;;;;;;;-141.50;100.00;63355.56;5031214;28;20065;-78
2023/09/17 08:27:21;;;;;;;4.43;2.53;;;;;;;-141.50;100.00;63355.56;5026927;28;20479;-78
2023/09/17 08:29:48;;;;;;;3.10;2.20;;;;;;;-141.50;100.00;63355.56;5026732;28;20068;-78
2023/09/17 08:32:15;;;;;;;14.82;2.70;;;;;;;-141.50;100.00;63355.56;5026256;28;20053;-78
2023/09/17 08:34:41;;;;;;;2.80;2.25;;;;;;;-141.50;100.00;63355.56;5026582;28;20049;-78
2023/09/17 08:37:08;;;;;;;3.22;2.45;;;;;;;-141.50;100.00;63355.56;5025970;28;20057;-78
2023/09/17 08:39:35;;;;;;;4.70;2.63;;;;;;;-141.50;100.00;63355.56;5025148;28;20071;-78
2023/09/17 08:42:03;;;;;;;3.55;2.28;;;;;;;-141.50;100.00;63355.56;5027070;28;20049;-78
2023/09/17 08:44:31;;;;;;;3.42;2.20;;;;;;;-141.50;100.00;63355.56;5011724;28;20053;-78
2023/09/17 08:47:02;;;;;;;3.03;2.15;;;;;;;-141.50;100.00;63355.56;5029943;28;20061;-78
2023/09/17 08:49:29;;;;;;;3.30;2.30;;;;;;;-141.50;100.00;63355.56;5024598;28;20487;-78
2023/09/17 08:51:58;;;;;;;3.22;2.50;;;;;;;-141.50;100.00;63355.56;5024375;28;20528;-78
2023/09/17 08:54:33;;;;;;;3.30;2.50;;;;;;;-141.50;100.00;63355.56;5024291;28;20045;-77
2023/09/17 08:57:03;;;;;;;4.03;2.50;;;;;;;-141.50;100.00;63355.56;5039282;28;20041;-78
2023/09/17 08:59:36;;;;;;;4.30;2.58;;;;;;;-141.50;100.00;63355.56;5023061;28;22314;-78
2023/09/17 09:02:09;;;;;;;3.22;2.30;;;;;;;-141.50;100.00;63355.56;5021876;28;20766;-78
2023/09/17 09:04:36;;;;;;;3.67;2.38;;;;;;;-141.50;100.00;63355.56;5023625;28;20172;-78
2023/09/17 09:07:05;;;;;;;4.00;2.72;;;;;;;-141.50;100.00;63355.56;5018095;28;20056;-78
2023/09/17 09:09:36;;;;;;;3.08;2.00;;;;;;;-141.50;100.00;63355.56;5023691;28;20048;-78
2023/09/17 09:12:03;;;;;;;3.65;2.30;;;;;;;-141.50;100.00;63355.56;5022920;28;20052;-77
2023/09/17 09:14:30;;;;;;;3.58;2.53;;;;;;;-141.50;100.00;63355.56;5024238;28;20065;-78
2023/09/17 09:16:57;;;;;;;3.80;2.17;;;;;;;-141.50;100.00;63355.56;5022591;28;20408;-78
2023/09/17 09:19:24;;;;;;;3.10;1.67;;;;;;;-141.50;100.00;63355.56;5025911;28;20042;-78
2023/09/17 09:21:51;;;;;;;2.75;1.60;;;;;;;-141.50;100.00;63355.56;5026458;28;20114;-79
2023/09/17 09:24:18;;;;;;;2.22;1.48;;;;;;;-141.50;100.00;63355.56;5042648;28;20586;-78
2023/09/17 09:26:45;;;;;;;3.88;1.75;;;;;;;-141.50;100.00;63355.56;5009649;28;20432;-78
2023/09/17 09:29:12;;;;;;;1.88;1.50;;;;;;;-141.50;100.00;63355.56;5027976;28;20057;-78
2023/09/17 09:31:40;;;;;;;2.42;1.65;;;;;;;-141.50;100.00;63355.56;5030172;28;20052;-79
2023/09/17 09:34:06;;;;;;;3.75;1.40;;;;;;;-141.50;100.00;63355.56;5026662;28;20053;-78
2023/09/17 09:36:36;;;;;;;2.40;1.60;;;;;;;-141.50;100.00;63355.56;5020794;28;20131;-77
2023/09/17 09:39:03;;;;;;;2.13;1.50;;;;;;;-141.50;100.00;63355.56;5018583;28;20476;-77
2023/09/17 09:41:32;;;;;;;2.83;1.67;;;;;;;-141.50;100.00;63355.56;5003280;28;20579;-77
2023/09/17 09:44:00;;;;;;;1.95;1.40;;;;;;;-141.50;100.00;63355.56;5019806;28;20682;-74
2023/09/17 09:46:28;;;;;;;2.08;1.40;;;;;;;-141.50;100.00;63355.56;5021976;28;20065;-75
2023/09/17 09:49:01;;;;;;;2.13;1.40;;;;;;;-141.50;100.00;63355.56;5009969;28;21390;-75
2023/09/17 09:51:35;;;;;;;3.08;1.70;;;;;;;-141.50;100.00;63355.56;5027281;28;20072;-78
2023/09/17 09:54:03;;;;;;;2.90;1.58;;;;;;;-141.50;100.00;63355.56;5019797;28;20522;-78
2023/09/17 09:56:30;;;;;;;2.00;1.40;;;;;;;-141.50;100.00;63355.56;5025747;28;20574;-77
2023/09/17 09:58:59;;;;;;;6.30;1.48;;;;;;;-141.50;100.00;63355.56;5021651;28;20529;-78
2023/09/17 10:01:27;;;;;;;1.90;1.40;;;;;;;-141.50;100.00;63355.56;5019525;28;20079;-78
2023/09/17 10:03:58;;;;;;;1.92;1.50;;;;;;;-141.50;100.00;63355.56;5019171;28;20052;-77
2023/09/17 10:06:25;;;;;;;2.35;1.75;;;;;;;-141.50;100.00;63355.56;5020888;28;20056;-77
2023/09/17 10:08:53;;;;;;;1.45;1.30;;;;;;;-141.50;100.00;63355.56;5020643;28;20051;-78
2023/09/17 10:11:22;;;;;;;2.15;1.52;;;;;;;-141.50;100.00;63355.56;4998031;28;20045;-78
2023/09/17 10:13:53;;;;;;;2.05;1.40;;;;;;;-141.50;100.00;63355.56;5022535;28;20525;-78
2023/09/17 10:16:20;;;;;;;2.28;1.77;;;;;;;-141.50;100.00;63355.56;5038178;28;20535;-78
2023/09/17 10:18:50;;;;;;;1.92;1.40;;;;;;;-141.50;100.00;63355.56;5022078;28;20434;-78
2023/09/17 10:21:18;;;;;;;2.30;1.58;;;;;;;-141.50;100.00;63355.56;5017438;28;20045;-78
2023/09/17 10:23:45;;;;;;;3.70;1.45;;;;;;;-141.50;100.00;63355.56;5017093;28;20049;-78
2023/09/17 10:26:14;;;;;;;1.85;1.45;;;;;;;-141.50;100.00;63355.56;5018390;28;20562;-77
2023/09/17 10:28:43;;;;;;;2.00;1.40;;;;;;;-141.50;100.00;63355.56;5033824;28;20045;-78
2023/09/17 10:31:10;;;;;;;1.90;1.50;;;;;;;-141.50;100.00;63355.56;5021753;28;20056;-78
2023/09/17 10:33:39;;;;;;;2.40;1.50;;;;;;;-141.50;100.00;63355.56;5021611;28;22118;-78
2023/09/17 10:36:07;;;;;;;2.53;1.40;;;;;;;-141.50;100.00;63355.56;5019691;28;20060;-78
2023/09/17 10:38:38;;;;;;;1.80;1.35;;;;;;;-141.50;100.00;63355.56;5021505;28;20162;-77
2023/09/17 10:41:06;;;;;;;1.75;1.30;;;;;;;-141.50;100.00;63355.56;5015437;28;20049;-78
2023/09/17 10:43:36;;;;;;;2.72;1.60;;;;;;;-141.50;100.00;63355.56;5021844;28;20068;-78
2023/09/17 10:46:06;;;;;;;2.10;1.30;;;;;;;-141.50;100.00;63355.56;5019921;28;20662;-77
2023/09/17 10:48:33;;;;;;;1.90;1.38;;;;;;;-141.50;100.00;63355.56;5019244;28;20045;-78
2023/09/17 10:51:00;;;;;;;2.10;1.30;;;;;;;-141.50;100.00;63355.56;5018668;28;20091;-78
2023/09/17 10:53:27;;;;;;;1.48;1.30;;;;;;;-141.50;100.00;63355.56;5003629;28;20057;-78
2023/09/17 10:56:07;;;;;;;1.58;1.10;;;;;;;-141.50;100.00;63355.56;5021934;28;20052;-78
2023/09/17 10:58:40;;;;;;;1.65;1.40;;;;;;;-141.50;100.00;63355.56;5020340;28;20060;-78
2023/09/17 11:01:09;;;;;;;1.42;1.08;;;;;;;-141.50;100.00;63355.56;5015864;28;20092;-77
2023/09/17 11:03:39;;;;;;;1.75;1.38;;;;;;;-141.50;100.00;63355.56;5020851;28;20049;-76
2023/09/17 11:06:15;;;;;;;1.33;1.05;;;;;;;-141.50;100.00;63355.56;5016801;28;20053;-77
2023/09/17 11:08:47;;;;;;;1.92;1.20;;;;;;;-141.50;100.00;63355.56;5019311;28;20075;-77